TimeEDT,TemperatureF,Dew PointF,Humidity,Sea Level PressureIn,VisibilityMPH,Wind Direction,Wind SpeedMPH,Gust SpeedMPH,PrecipitationIn,Events,Conditions,WindDirDegrees,DateUTC
12:01 AM,46.4,32.7,59,30.18,10.0,Calm,Calm,-,N/A,,Clear,0,2013-05-14 04:01:00
12:21 AM,45.9,32.7,60,30.19,10.0,Calm,Calm,-,N/A,,Clear,0,2013-05-14 04:21:00
12:41 AM,44.8,33.4,64,30.19,10.0,Calm,Calm,-,N/A,,Clear,0,2013-05-14 04:41:00
1:01 AM,44.6,34.0,66,30.19,10.0,Calm,Calm,-,N/A,,Clear,0,2013-05-14 05:01:00
1:21 AM,44.1,34.2,68,30.19,10.0,Calm,Calm,-,N/A,,Clear,0,2013-05-14 05:21:00
1:41 AM,43.2,34.3,71,30.19,10.0,Calm,Calm,-,N/A,,Clear,0,2013-05-14 05:41:00
2:01 AM,43.2,34.5,72,30.19,10.0,Calm,Calm,-,N/A,,Clear,0,2013-05-14 06:01:00
2:21 AM,43.7,33.8,68,30.20,10.0,North,3.5,-,N/A,,Clear,360,2013-05-14 06:21:00
2:41 AM,43.9,33.6,67,30.20,10.0,North,3.5,-,N/A,,Clear,10,2013-05-14 06:41:00
3:01 AM,43.3,34.0,70,30.20,10.0,Calm,Calm,-,N/A,,Clear,0,2013-05-14 07:01:00
3:21 AM,44.2,32.9,64,30.19,10.0,Calm,Calm,-,N/A,,Clear,0,2013-05-14 07:21:00
3:41 AM,44.1,32.9,65,30.20,10.0,North,4.6,-,N/A,,Clear,360,2013-05-14 07:41:00
4:01 AM,43.5,33.1,67,30.20,10.0,North,4.6,-,N/A,,Clear,360,2013-05-14 08:01:00
4:21 AM,43.0,33.1,68,30.20,10.0,North,4.6,-,N/A,,Clear,350,2013-05-14 08:21:00
4:41 AM,42.8,33.4,70,30.20,10.0,North,3.5,-,N/A,,Clear,350,2013-05-14 08:41:00
5:01 AM,42.8,33.3,69,30.21,10.0,North,3.5,-,N/A,,Clear,10,2013-05-14 09:01:00
5:21 AM,41.5,33.8,74,30.21,10.0,NNE,3.5,-,N/A,,Clear,20,2013-05-14 09:21:00
5:41 AM,42.4,33.6,71,30.21,10.0,NNE,3.5,-,N/A,,Clear,20,2013-05-14 09:41:00
5:50 AM,41.0,33.8,76,30.21,10.0,NNE,4.6,-,N/A,,Clear,20,2013-05-14 09:50:00
6:01 AM,39.9,34.0,79,30.21,10.0,NNE,3.5,-,N/A,,Clear,20,2013-05-14 10:01:00
6:21 AM,43.2,34.7,72,30.22,10.0,Calm,Calm,-,N/A,,Clear,0,2013-05-14 10:21:00
6:42 AM,45.9,35.1,66,30.23,10.0,North,3.5,-,N/A,,Clear,360,2013-05-14 10:42:00
6:52 AM,46.4,35.6,66,30.24,10.0,North,4.6,-,N/A,,Clear,350,2013-05-14 10:52:00
7:02 AM,47.3,35.4,63,30.24,10.0,North,3.5,-,N/A,,Clear,10,2013-05-14 11:02:00
7:22 AM,48.2,34.7,60,30.24,10.0,NNE,5.8,-,N/A,,Clear,20,2013-05-14 11:22:00
7:42 AM,49.1,34.9,58,30.23,10.0,North,5.8,-,N/A,,Clear,10,2013-05-14 11:42:00
7:52 AM,48.2,35.6,62,30.24,10.0,NNE,4.6,-,N/A,,Clear,20,2013-05-14 11:52:00
8:50 AM,50.0,33.8,54,30.24,10.0,North,8.1,-,N/A,,Clear,10,2013-05-14 12:50:00
9:52 AM,55.4,32.0,41,30.23,10.0,North,8.1,-,N/A,,Scattered Clouds,360,2013-05-14 13:52:00
10:50 AM,55.4,32.0,41,30.23,10.0,NNW,11.5,17.3,N/A,,Scattered Clouds,340,2013-05-14 14:50:00
11:53 AM,57.2,35.6,44,30.22,10.0,West,11.5,18.4,N/A,,Scattered Clouds,280,2013-05-14 15:53:00
12:50 PM,59.0,35.6,42,30.21,10.0,WNW,11.5,17.3,N/A,,Scattered Clouds,290,2013-05-14 16:50:00
1:53 PM,60.8,35.6,39,30.19,10.0,WNW,9.2,17.3,N/A,,Partly Cloudy,290,2013-05-14 17:53:00
2:53 PM,62.6,35.6,37,30.18,10.0,NW,13.8,18.4,N/A,,Partly Cloudy,310,2013-05-14 18:53:00
3:53 PM,62.6,35.6,37,30.15,10.0,West,6.9,-,N/A,,Scattered Clouds,260,2013-05-14 19:53:00
4:53 PM,62.6,35.6,37,30.14,10.0,SW,5.8,-,N/A,,Mostly Cloudy,230,2013-05-14 20:53:00
5:53 PM,60.8,37.4,42,30.12,10.0,WSW,5.8,-,N/A,,Overcast,240,2013-05-14 21:53:00
6:53 PM,59.0,37.4,45,30.12,10.0,WSW,5.8,-,N/A,,Overcast,240,2013-05-14 22:53:00
7:53 PM,59.0,39.2,48,30.13,10.0,WSW,4.6,-,N/A,,Overcast,240,2013-05-14 23:53:00
8:53 PM,57.2,42.8,59,30.11,10.0,South,4.6,-,N/A,,Overcast,180,2013-05-15 00:53:00
11:03 PM,54.1,46.6,76,30.14,10.0,SE,4.6,-,N/A,,Scattered Clouds,130,2013-05-15 03:03:00
11:23 PM,54.1,46.4,75,30.12,10.0,SSE,5.8,-,N/A,,Clear,150,2013-05-15 03:23:00
11:43 PM,54.0,46.6,76,30.13,10.0,SSE,4.6,-,N/A,,Clear,150,2013-05-15 03:43:00